Aeroporto :
LOGIN :

Iscrizione | Disclaimer

   EN    FR    IT 

 










Sommario :    VFR   VFR Marginale   IFR   IFR Intensivo   IFR Molto Intensivo
Visibilità : 
Base nubi : 
>= 8 km
>= 3000ft
5 / 8 km
1000 / 3000 ft
1500m / 5 km
500 / 1000 ft
800 / 1500m
200 / 500 ft
< 800m
< 200 ft
Simboli :   Temporali  Nebbia  Neve Forte  Precipitazioni Forti  Vento > 20 kt
SIGMETs :   Varie  Temporali  Ghiacco  Turbolenza  Onda orograficha  Ceneri Vulcaniche







- Altitudine del aeroporto : 587 ft
- Codice IATA : XCR
- Carte del aeroporto


LFOK - Chalons Vatry

ULTIMO METAR :
  • 162000Z AUTO VRB02KT CAVOK 15/10 Q1019 NOSIG

METARs OBSOLETI :
  • 161930Z AUTO 16002KT CAVOK 15/10 Q1019 NOSIG
  • 161900Z AUTO VRB03KT CAVOK 14/08 Q1018 NOSIG
  • 161830Z AUTO 13003KT CAVOK 17/10 Q1018 NOSIG
  • 161800Z AUTO 15002KT CAVOK 18/10 Q1018 NOSIG
  • 161730Z AUTO 10003KT CAVOK 19/10 Q1018 NOSIG

TAF TAF LFOK
Valido dal 16 a 18 ore il 17 a 18 ore UTC


161700Z 1618/1718 VRB02KT CAVOK
BECMG 1715/1718 36010KT
Nessun NOTAM noto per questo aeroporto.



MetMap, La meteo Aeronautica in un colpo d'occhio ! - Copyright ORBIFLY Dicembre 2007 - Disclaimer

ORBIFLY MET'MAP TEAM :

Programmazione e sviluppo : Alexandra Zaïnal
Concezione e sviluppo : Baudouin d'Aumeries
Co-Programmazione e sviluppo : Marc-Olivier Méhu
Supporto tecnico e logistico : Manuel Goepfert
Aiuto per la traduzione : Arnaldo La Scala

Contatto : metmap@orbifly.com




FONTI E CREDITI :

   NOAA